Time;durP1;ratioP1;P1;durP2;ratioP2;P2;SDS_P1;SDS_P2;PMS_P1;PMS_P2;Temp;Humidity;BMP_temperature;BMP_pressure;BME280_temperature;BME280_humidity;BME280_pressure;Samples;Min_cycle;Max_cycle;Signal;HPM_P1;HPM_P2
2022/07/09 00:01:07;;;;;;;2.53;1.70;;;26.70;53.90;;;;;;4924761;29;20467;-73
2022/07/09 00:03:37;;;;;;;2.50;2.30;;;26.70;53.90;;;;;;4934083;29;20534;-73
2022/07/09 00:06:06;;;;;;;2.20;2.00;;;26.70;53.90;;;;;;4935255;29;20758;-73
2022/07/09 00:08:34;;;;;;;2.53;2.00;;;26.60;53.90;;;;;;4935168;29;20455;-73
2022/07/09 00:11:06;;;;;;;2.40;2.07;;;26.60;54.00;;;;;;4935780;29;20450;-73
2022/07/09 00:13:34;;;;;;;3.20;2.23;;;26.60;54.00;;;;;;4935217;29;20471;-73
2022/07/09 00:16:05;;;;;;;2.30;1.93;;;26.60;54.00;;;;;;4934759;29;20472;-73
2022/07/09 00:18:33;;;;;;;3.20;2.20;;;26.60;54.00;;;;;;4934755;29;20444;-78
2022/07/09 00:21:06;;;;;;;2.30;2.07;;;26.60;54.00;;;;;;4934764;29;20549;-73
2022/07/09 00:23:34;;;;;;;2.50;1.77;;;26.60;54.00;;;;;;4933823;29;21366;-76
2022/07/09 00:26:06;;;;;;;2.33;2.13;;;26.60;54.00;;;;;;4931108;29;21449;-73
2022/07/09 00:28:34;;;;;;;2.30;2.10;;;26.60;54.00;;;;;;4934886;29;20530;-73
2022/07/09 00:31:05;;;;;;;2.40;2.20;;;26.60;54.00;;;;;;4936316;29;20538;-72
2022/07/09 00:33:34;;;;;;;1.90;1.77;;;26.60;54.00;;;;;;4937391;29;20547;-73
2022/07/09 00:36:06;;;;;;;2.43;1.90;;;26.60;54.00;;;;;;4924135;29;20911;-72
2022/07/09 00:38:35;;;;;;;2.50;2.10;;;26.50;54.00;;;;;;4919607;29;20507;-75
2022/07/09 00:41:07;;;;;;;4.00;2.00;;;26.50;54.00;;;;;;4920445;29;20523;-72
2022/07/09 00:43:35;;;;;;;2.37;1.87;;;26.50;54.00;;;;;;4935280;29;20865;-73
2022/07/09 00:46:06;;;;;;;2.90;2.07;;;26.50;54.00;;;;;;4938841;29;20444;-75
2022/07/09 00:48:35;;;;;;;2.43;1.63;;;26.50;54.10;;;;;;4938879;29;20449;-73
2022/07/09 00:51:08;;;;;;;3.00;2.33;;;26.50;54.00;;;;;;4935133;29;20492;-73
2022/07/09 00:53:37;;;;;;;2.77;2.20;;;26.50;54.10;;;;;;4938635;29;20763;-73
2022/07/09 00:56:08;;;;;;;2.60;2.17;;;26.50;54.10;;;;;;4938599;29;20440;-73
2022/07/09 00:58:37;;;;;;;2.53;2.10;;;26.40;54.10;;;;;;4938957;29;20493;-73
2022/07/09 01:01:07;;;;;;;3.13;2.33;;;26.40;54.10;;;;;;4925391;29;20446;-76
2022/07/09 01:03:35;;;;;;;2.87;2.10;;;26.40;54.20;;;;;;4935898;29;22887;-73
2022/07/09 01:06:08;;;;;;;1.60;1.50;;;26.40;54.20;;;;;;4924037;29;20462;-73
2022/07/09 01:08:36;;;;;;;3.50;2.00;;;26.40;54.10;;;;;;4931801;29;20439;-73
2022/07/09 01:11:07;;;;;;;2.30;2.10;;;26.40;54.20;;;;;;4928005;29;20450;-74
2022/07/09 01:13:36;;;;;;;2.00;1.90;;;26.40;54.30;;;;;;4926081;29;20472;-73
2022/07/09 01:16:13;;;;;;;2.97;2.43;;;26.40;54.30;;;;;;4938276;29;20544;-73
2022/07/09 01:18:44;;;;;;;2.37;2.03;;;26.30;54.30;;;;;;4938391;29;20420;-73
2022/07/09 01:21:14;;;;;;;2.90;2.10;;;26.30;54.30;;;;;;4938616;29;20426;-72
2022/07/09 01:23:42;;;;;;;2.57;2.10;;;26.30;54.40;;;;;;4934522;29;20495;-73
2022/07/09 01:26:11;;;;;;;4.07;2.40;;;26.30;54.40;;;;;;4920095;29;20490;-73
2022/07/09 01:28:39;;;;;;;2.23;2.03;;;26.30;54.40;;;;;;4932626;29;20465;-73
2022/07/09 01:31:07;;;;;;;4.27;2.20;;;26.30;54.40;;;;;;4929717;29;20450;-72
2022/07/09 01:33:35;;;;;;;2.70;2.43;;;26.30;54.40;;;;;;4934239;29;20472;-72
2022/07/09 01:36:07;;;;;;;2.43;2.10;;;26.30;54.40;;;;;;4931254;29;20928;-72
2022/07/09 01:38:37;;;;;;;2.37;2.13;;;26.30;54.50;;;;;;4936477;29;20437;-72
2022/07/09 01:41:06;;;;;;;4.27;2.10;;;26.30;54.50;;;;;;4937460;29;20476;-72
2022/07/09 01:43:34;;;;;;;2.40;2.20;;;26.30;54.50;;;;;;4934886;29;20500;-72
2022/07/09 01:46:05;;;;;;;2.53;2.33;;;26.20;54.60;;;;;;4937245;29;20509;-72
2022/07/09 01:48:35;;;;;;;2.27;1.80;;;26.20;54.60;;;;;;4937610;29;20493;-73
2022/07/09 01:51:06;;;;;;;3.83;2.30;;;26.20;54.60;;;;;;4937661;29;20994;-72
2022/07/09 01:53:35;;;;;;;2.80;2.00;;;26.20;54.60;;;;;;4937499;29;20439;-72
2022/07/09 01:56:07;;;;;;;3.73;2.03;;;26.20;54.60;;;;;;4937791;29;20470;-72
2022/07/09 01:58:36;;;;;;;2.27;2.00;;;26.20;54.60;;;;;;4930994;29;20537;-72
2022/07/09 02:01:08;;;;;;;2.03;1.83;;;26.20;54.60;;;;;;4908853;29;20941;-73
2022/07/09 02:03:36;;;;;;;2.33;2.03;;;26.20;54.60;;;;;;4918439;29;20781;-72
2022/07/09 02:06:07;;;;;;;2.60;2.30;;;26.10;54.50;;;;;;4918748;29;20480;-72
2022/07/09 02:08:36;;;;;;;2.47;2.27;;;26.10;54.60;;;;;;4918140;29;20431;-72
2022/07/09 02:11:10;;;;;;;2.80;2.23;;;26.10;54.60;;;;;;4928530;29;20488;-72
2022/07/09 02:13:38;;;;;;;2.10;1.90;;;26.10;54.70;;;;;;4937314;29;20430;-72
2022/07/09 02:16:08;;;;;;;1.90;1.80;;;26.10;54.70;;;;;;4934222;29;20461;-72
2022/07/09 02:19:01;;;;;;;2.73;2.53;;;26.10;54.70;;;;;;4936935;29;20445;-72
2022/07/09 02:21:29;;;;;;;2.30;2.10;;;26.10;54.70;;;;;;4936534;29;20466;-72
2022/07/09 02:23:58;;;;;;;2.80;2.43;;;26.10;54.70;;;;;;4936561;29;20604;-73
2022/07/09 02:26:29;;;;;;;2.60;2.13;;;26.10;54.70;;;;;;4936624;29;20466;-72
2022/07/09 02:28:57;;;;;;;2.80;2.50;;;26.10;54.70;;;;;;4936932;29;20484;-72
2022/07/09 02:31:26;;;;;;;2.77;2.47;;;26.00;54.70;;;;;;4936262;29;20517;-72
2022/07/09 02:33:54;;;;;;;2.70;2.30;;;26.00;54.60;;;;;;4934975;29;20678;-72
2022/07/09 02:36:22;;;;;;;2.53;2.10;;;26.00;54.70;;;;;;4930203;29;20444;-72
2022/07/09 02:38:50;;;;;;;2.97;2.00;;;26.00;54.80;;;;;;4936799;29;20482;-72
2022/07/09 02:41:20;;;;;;;2.50;2.30;;;26.00;54.80;;;;;;4936713;29;20475;-72
2022/07/09 02:43:49;;;;;;;2.80;2.50;;;26.00;54.80;;;;;;4925754;29;20455;-73
2022/07/09 02:46:17;;;;;;;3.30;2.17;;;26.00;54.80;;;;;;4924866;29;20521;-72
2022/07/09 02:48:46;;;;;;;2.83;2.50;;;26.00;54.80;;;;;;4936550;29;20450;-72
2022/07/09 02:51:14;;;;;;;2.60;2.40;;;26.00;54.70;;;;;;4936910;29;20475;-73
2022/07/09 02:53:42;;;;;;;2.13;1.93;;;26.00;54.70;;;;;;4935978;29;20425;-72
2022/07/09 02:56:11;;;;;;;3.07;2.10;;;26.00;54.90;;;;;;4932605;29;20839;-72
2022/07/09 02:58:40;;;;;;;2.73;2.33;;;26.00;54.90;;;;;;4928066;29;20505;-72
2022/07/09 03:01:09;;;;;;;3.30;2.07;;;26.00;54.80;;;;;;4935722;29;20817;-72
2022/07/09 03:03:37;;;;;;;2.73;2.37;;;25.90;54.90;;;;;;4935987;29;20461;-73
2022/07/09 03:06:09;;;;;;;3.97;2.93;;;25.90;54.80;;;;;;4936225;29;20908;-72
2022/07/09 03:08:38;;;;;;;2.50;2.30;;;25.90;54.90;;;;;;4935475;29;20490;-72
2022/07/09 03:11:07;;;;;;;3.60;2.60;;;25.90;54.90;;;;;;4936596;29;20453;-72
2022/07/09 03:13:35;;;;;;;2.80;2.50;;;25.90;55.00;;;;;;4935920;29;20838;-75
2022/07/09 03:16:07;;;;;;;3.23;2.40;;;25.90;54.90;;;;;;4936105;29;20445;-72
2022/07/09 03:18:38;;;;;;;2.23;2.03;;;25.90;54.90;;;;;;4936143;29;20470;-72
2022/07/09 03:21:08;;;;;;;2.90;2.60;;;25.90;55.00;;;;;;4935982;29;20441;-74
2022/07/09 03:23:37;;;;;;;3.13;2.30;;;25.90;55.00;;;;;;4935943;29;21125;-72
2022/07/09 03:26:08;;;;;;;2.57;2.37;;;25.80;55.10;;;;;;4936211;29;20473;-72
2022/07/09 03:28:36;;;;;;;3.10;2.37;;;25.90;55.10;;;;;;4919245;29;20459;-72
2022/07/09 03:31:05;;;;;;;2.57;1.90;;;25.80;55.10;;;;;;4935452;29;20441;-72
2022/07/09 03:33:34;;;;;;;2.13;1.93;;;25.80;55.10;;;;;;4936168;29;20443;-72
2022/07/09 03:36:09;;;;;;;6.80;2.60;;;25.80;55.10;;;;;;4936102;29;20457;-72
2022/07/09 03:38:37;;;;;;;2.90;2.60;;;25.80;55.10;;;;;;4935675;29;20424;-72
2022/07/09 03:41:06;;;;;;;3.07;2.60;;;25.80;55.10;;;;;;4935864;29;20784;-73
2022/07/09 03:43:34;;;;;;;2.17;1.97;;;25.80;55.10;;;;;;4935529;29;20428;-72
2022/07/09 03:46:04;;;;;;;8.03;2.30;;;25.80;55.10;;;;;;4935592;29;20466;-72
2022/07/09 03:48:33;;;;;;;3.33;2.60;;;25.80;55.10;;;;;;4936130;29;20503;-72
2022/07/09 03:51:06;;;;;;;2.87;2.40;;;25.80;55.10;;;;;;4935828;29;20560;-72
2022/07/09 03:53:35;;;;;;;4.07;3.00;;;25.80;55.20;;;;;;4935878;29;21275;-73
2022/07/09 03:56:07;;;;;;;2.40;2.20;;;25.80;55.10;;;;;;4936027;29;20429;-72
2022/07/09 03:58:35;;;;;;;2.83;2.30;;;25.80;55.10;;;;;;4930287;29;20463;-72
2022/07/09 04:01:07;;;;;;;2.67;2.47;;;25.80;55.20;;;;;;4935231;29;20806;-72
2022/07/09 04:03:36;;;;;;;2.73;2.53;;;25.80;55.10;;;;;;4924557;29;20454;-73
2022/07/09 04:06:09;;;;;;;2.97;2.57;;;25.80;55.10;;;;;;4920338;29;20474;-72
2022/07/09 04:08:37;;;;;;;2.60;2.30;;;25.80;55.10;;;;;;4936741;29;20916;-72
2022/07/09 04:11:05;;;;;;;2.53;2.30;;;25.80;55.10;;;;;;4922427;29;20448;-72
2022/07/09 04:13:36;;;;;;;2.03;1.83;;;25.80;55.10;;;;;;4937878;29;20926;-72
2022/07/09 04:16:08;;;;;;;2.70;2.50;;;25.80;55.20;;;;;;4938659;29;20804;-73
2022/07/09 04:18:36;;;;;;;3.47;2.40;;;25.80;55.10;;;;;;4920974;29;20443;-72
2022/07/09 04:21:09;;;;;;;3.00;1.97;;;25.80;55.20;;;;;;4920750;29;20459;-72
2022/07/09 04:23:38;;;;;;;2.60;2.10;;;25.70;55.20;;;;;;4920964;29;20517;-73
2022/07/09 04:26:06;;;;;;;2.70;2.03;;;25.80;55.20;;;;;;4927121;29;20469;-72
2022/07/09 04:28:36;;;;;;;2.67;2.00;;;25.70;55.10;;;;;;4939184;29;20454;-72
2022/07/09 04:31:08;;;;;;;2.40;2.10;;;25.70;55.20;;;;;;4939379;29;20438;-72
2022/07/09 04:33:36;;;;;;;3.17;2.00;;;25.70;55.20;;;;;;4938898;29;20536;-73
2022/07/09 04:36:09;;;;;;;2.73;2.50;;;25.70;55.20;;;;;;4939031;29;20475;-72
2022/07/09 04:38:37;;;;;;;2.60;2.40;;;25.70;55.20;;;;;;4938755;29;20524;-72
2022/07/09 04:41:08;;;;;;;2.33;2.00;;;25.70;55.30;;;;;;4939078;29;20460;-72
2022/07/09 04:43:36;;;;;;;2.20;2.00;;;25.70;55.30;;;;;;4935586;29;20456;-72
2022/07/09 04:46:07;;;;;;;2.50;2.30;;;25.70;55.20;;;;;;4933609;29;20481;-72
2022/07/09 04:48:36;;;;;;;2.30;2.10;;;25.70;55.30;;;;;;4938886;29;20452;-72
2022/07/09 04:51:09;;;;;;;2.03;1.83;;;25.70;55.20;;;;;;4938711;29;20461;-73
2022/07/09 04:53:37;;;;;;;2.50;2.30;;;25.70;55.30;;;;;;4934942;29;20501;-72
2022/07/09 04:56:08;;;;;;;2.57;2.37;;;25.70;55.20;;;;;;4920048;29;20894;-72
2022/07/09 04:58:37;;;;;;;3.47;2.20;;;25.70;55.30;;;;;;4919499;29;20438;-73
2022/07/09 05:01:06;;;;;;;2.97;2.47;;;25.70;55.30;;;;;;4926095;29;20467;-72
2022/07/09 05:03:34;;;;;;;3.57;2.13;;;25.70;55.30;;;;;;4932081;29;20924;-73
2022/07/09 05:06:06;;;;;;;2.60;2.40;;;25.70;55.30;;;;;;4931560;29;20475;-73
2022/07/09 05:08:37;;;;;;;2.30;2.07;;;25.70;55.30;;;;;;4938093;29;20948;-72
2022/07/09 05:11:08;;;;;;;2.67;2.47;;;25.70;55.40;;;;;;4930295;29;20469;-72
2022/07/09 05:13:43;;;;;;;2.20;2.00;;;25.70;55.40;;;;;;4927732;29;20447;-72
2022/07/09 05:16:11;;;;;;;2.83;2.60;;;25.70;55.40;;;;;;4937574;29;20492;-72
2022/07/09 05:18:39;;;;;;;2.90;2.40;;;25.70;55.50;;;;;;4938318;29;20541;-75
2022/07/09 05:21:08;;;;;;;3.83;2.27;;;25.70;55.50;;;;;;4938113;29;20769;-72
2022/07/09 05:23:38;;;;;;;4.10;2.30;;;25.70;55.50;;;;;;4938370;29;20948;-73
2022/07/09 05:26:06;;;;;;;2.73;2.53;;;25.70;55.50;;;;;;4937654;29;20577;-72
2022/07/09 05:28:35;;;;;;;2.10;1.90;;;25.70;55.50;;;;;;4937949;29;20954;-73
2022/07/09 05:31:07;;;;;;;3.00;2.63;;;25.70;55.50;;;;;;4938341;29;20433;-72
2022/07/09 05:33:55;;;;;;;4.03;2.73;;;25.70;55.60;;;;;;4934073;29;20457;-72
2022/07/09 05:36:23;;;;;;;2.90;2.40;;;25.70;55.50;;;;;;4919248;29;20898;-72
2022/07/09 05:38:53;;;;;;;2.47;2.27;;;25.70;55.50;;;;;;4919066;29;20435;-72
2022/07/09 05:41:22;;;;;;;3.13;2.20;;;25.70;55.50;;;;;;4933834;29;20455;-73
2022/07/09 05:43:50;;;;;;;3.20;2.40;;;25.70;55.50;;;;;;4937921;29;20464;-73
2022/07/09 05:46:18;;;;;;;3.27;2.70;;;25.70;55.60;;;;;;4938005;29;20466;-72
2022/07/09 05:48:47;;;;;;;2.33;2.00;;;25.70;55.50;;;;;;4937557;29;20929;-72
2022/07/09 05:51:15;;;;;;;2.43;2.20;;;25.70;55.50;;;;;;4937346;29;20484;-72
2022/07/09 05:53:44;;;;;;;2.53;2.20;;;25.70;55.50;;;;;;4933803;29;20477;-75
2022/07/09 05:56:18;;;;;;;2.63;2.23;;;25.70;55.50;;;;;;4937501;29;20426;-72
2022/07/09 05:58:47;;;;;;;2.40;2.13;;;25.70;55.60;;;;;;4937274;29;20459;-72
2022/07/09 06:01:15;;;;;;;2.10;1.90;;;25.70;55.50;;;;;;4937184;29;20731;-73
2022/07/09 06:03:48;;;;;;;3.50;2.50;;;25.70;55.50;;;;;;4936627;29;20451;-72
2022/07/09 06:06:17;;;;;;;2.83;2.13;;;25.80;55.50;;;;;;4937135;29;20874;-72
2022/07/09 06:08:45;;;;;;;2.70;2.50;;;25.80;55.60;;;;;;4937715;29;20493;-72
2022/07/09 06:11:13;;;;;;;2.10;1.90;;;25.80;55.50;;;;;;4935861;29;20528;-72
2022/07/09 06:13:43;;;;;;;2.40;2.03;;;25.80;55.60;;;;;;4934270;29;20462;-72
2022/07/09 06:16:11;;;;;;;2.40;2.20;;;25.80;55.60;;;;;;4932553;29;20554;-72
2022/07/09 06:18:39;;;;;;;2.63;2.40;;;25.80;55.60;;;;;;4931737;29;20556;-72
2022/07/09 06:21:08;;;;;;;2.13;1.93;;;25.80;55.50;;;;;;4936349;29;20458;-75
2022/07/09 06:23:36;;;;;;;4.33;2.27;;;25.90;55.50;;;;;;4933778;29;20522;-72
2022/07/09 06:26:07;;;;;;;2.70;2.20;;;25.90;55.50;;;;;;4929185;29;20541;-73
2022/07/09 06:28:37;;;;;;;2.70;2.50;;;25.90;55.70;;;;;;4933022;29;20935;-83
2022/07/09 06:31:10;;;;;;;2.40;2.20;;;25.90;55.80;;;;;;4933457;29;20466;-72
2022/07/09 06:33:38;;;;;;;2.40;2.20;;;25.90;55.80;;;;;;4927669;29;20503;-73
2022/07/09 06:36:06;;;;;;;3.20;2.20;;;25.90;55.80;;;;;;4929023;29;20475;-73
2022/07/09 06:39:44;;;;;;;3.13;2.57;;;26.00;55.80;;;;;;4934960;29;20450;-73
2022/07/09 06:41:24;;;;;;;2.70;2.50;;;26.00;55.80;;;;;;4925926;29;20529;-72
2022/07/09 06:43:52;;;;;;;3.17;2.87;;;26.00;55.80;;;;;;4931102;29;20488;-72
2022/07/09 06:46:22;;;;;;;2.30;2.10;;;26.00;55.80;;;;;;4933863;29;20463;-72
2022/07/09 06:48:50;;;;;;;2.80;2.50;;;26.00;55.80;;;;;;4934271;29;20968;-72
2022/07/09 06:51:18;;;;;;;3.07;2.23;;;26.00;55.70;;;;;;4935561;29;20509;-72
2022/07/09 06:53:46;;;;;;;2.60;2.40;;;26.00;55.70;;;;;;4934860;29;20496;-72
2022/07/09 06:56:14;;;;;;;4.77;2.23;;;26.10;55.70;;;;;;4932307;29;20461;-73
2022/07/09 06:58:43;;;;;;;3.07;2.30;;;26.10;55.70;;;;;;4933660;29;20497;-73
2022/07/09 07:01:11;;;;;;;5.20;2.40;;;26.10;55.70;;;;;;4934796;29;20474;-72
2022/07/09 07:03:40;;;;;;;3.10;2.60;;;26.10;55.70;;;;;;4922936;29;20466;-72
2022/07/09 07:06:09;;;;;;;3.33;2.60;;;26.10;55.70;;;;;;4920031;29;20450;-73
2022/07/09 07:08:37;;;;;;;5.03;2.57;;;26.10;55.70;;;;;;4933492;29;20481;-72
2022/07/09 07:11:06;;;;;;;4.13;2.37;;;26.10;55.80;;;;;;4931105;29;20544;-73
2022/07/09 07:13:34;;;;;;;5.60;3.50;;;26.10;55.80;;;;;;4929312;29;20560;-72
2022/07/09 07:16:05;;;;;;;4.47;3.40;;;26.20;55.80;;;;;;4928377;29;20512;-73
2022/07/09 07:18:33;;;;;;;5.63;3.00;;;26.20;55.80;;;;;;4934754;29;20463;-72
2022/07/09 07:21:06;;;;;;;6.20;3.33;;;26.20;55.80;;;;;;4928594;29;20540;-76
2022/07/09 07:23:34;;;;;;;5.20;3.30;;;26.20;55.80;;;;;;4928076;29;20527;-73
2022/07/09 07:26:05;;;;;;;8.10;4.07;;;26.20;55.80;;;;;;4933409;29;20447;-73
2022/07/09 07:28:33;;;;;;;5.40;3.90;;;26.20;55.80;;;;;;4931674;29;20509;-72
2022/07/09 07:31:02;;;;;;;9.07;3.40;;;26.20;55.80;;;;;;4920513;29;20941;-76
2022/07/09 07:33:34;;;;;;;8.17;3.80;;;26.20;55.80;;;;;;4925379;29;20798;-73
2022/07/09 07:36:06;;;;;;;11.93;4.63;;;26.20;55.80;;;;;;4935267;29;20447;-75
2022/07/09 07:38:34;;;;;;;5.80;3.30;;;26.30;55.80;;;;;;4934330;29;21258;-69
2022/07/09 07:41:07;;;;;;;8.67;3.83;;;26.30;55.80;;;;;;4935279;29;20457;-70
2022/07/09 07:43:35;;;;;;;6.83;3.60;;;26.30;55.80;;;;;;4911747;29;20965;-70
2022/07/09 07:46:06;;;;;;;7.00;3.80;;;26.30;55.80;;;;;;4916083;29;21232;-70
2022/07/09 07:48:36;;;;;;;8.30;3.57;;;26.30;55.90;;;;;;4916236;29;20821;-69
2022/07/09 07:51:10;;;;;;;6.03;4.13;;;26.30;55.90;;;;;;4919449;29;20482;-70
2022/07/09 07:53:38;;;;;;;10.23;4.17;;;26.30;55.80;;;;;;4934903;29;20444;-68
2022/07/09 07:56:08;;;;;;;6.83;3.73;;;26.30;55.80;;;;;;4926389;29;20545;-69
2022/07/09 07:58:36;;;;;;;7.90;3.90;;;26.30;55.80;;;;;;4931020;29;20457;-69
2022/07/09 08:01:08;;;;;;;4.40;3.20;;;26.30;55.80;;;;;;4931660;29;20458;-68
2022/07/09 08:03:36;;;;;;;4.77;2.90;;;26.30;55.80;;;;;;4925574;29;20947;-68
2022/07/09 08:06:09;;;;;;;5.13;3.50;;;26.30;55.80;;;;;;4922318;29;20444;-69
2022/07/09 08:08:38;;;;;;;5.80;3.57;;;26.30;55.80;;;;;;4917133;29;20471;-68
2022/07/09 08:11:06;;;;;;;7.07;3.47;;;26.40;55.80;;;;;;4922567;29;20479;-68
2022/07/09 08:13:35;;;;;;;5.57;3.27;;;26.40;55.80;;;;;;4923642;29;20459;-68
2022/07/09 08:16:06;;;;;;;4.80;3.23;;;26.40;55.80;;;;;;4922659;29;20450;-68
2022/07/09 08:18:35;;;;;;;8.07;3.40;;;26.40;55.80;;;;;;4928402;29;21040;-68
2022/07/09 08:21:07;;;;;;;4.00;3.13;;;26.40;55.80;;;;;;4927705;29;20464;-68
2022/07/09 08:23:51;;;;;;;4.60;2.97;;;26.40;55.70;;;;;;4926919;29;20494;-68
2022/07/09 08:26:19;;;;;;;3.90;3.40;;;26.40;55.70;;;;;;4928475;29;20456;-69
2022/07/09 08:28:48;;;;;;;4.87;3.47;;;26.50;55.70;;;;;;4929599;29;20853;-68
2022/07/09 08:31:16;;;;;;;5.33;3.47;;;26.50;55.60;;;;;;4933562;29;20890;-68
2022/07/09 08:33:45;;;;;;;4.23;2.70;;;26.50;55.70;;;;;;4930313;29;20451;-69
2022/07/09 08:36:14;;;;;;;5.17;3.00;;;26.50;55.60;;;;;;4931141;29;20796;-69
2022/07/09 08:38:43;;;;;;;3.50;3.20;;;26.50;55.70;;;;;;4928397;29;20548;-68
2022/07/09 08:41:15;;;;;;;4.33;2.53;;;26.50;55.60;;;;;;4932043;29;20514;-69
2022/07/09 08:43:51;;;;;;;5.47;3.13;;;26.50;55.70;;;;;;4929473;29;20489;-67
2022/07/09 08:46:20;;;;;;;4.73;3.10;;;26.50;55.60;;;;;;4930075;29;20802;-68
2022/07/09 08:48:50;;;;;;;4.10;2.70;;;26.50;55.60;;;;;;4933080;29;20501;-68
2022/07/09 08:51:19;;;;;;;3.90;2.97;;;26.50;55.70;;;;;;4932246;29;21011;-67
2022/07/09 08:53:49;;;;;;;4.87;2.77;;;26.50;55.70;;;;;;4922926;29;20797;-68
2022/07/09 08:56:17;;;;;;;3.53;3.13;;;26.50;55.60;;;;;;4935145;29;20510;-68
2022/07/09 08:58:45;;;;;;;4.03;2.70;;;26.50;55.60;;;;;;4936373;29;20488;-68
2022/07/09 09:01:17;;;;;;;4.33;3.13;;;26.60;55.60;;;;;;4931966;29;20452;-68
2022/07/09 09:03:45;;;;;;;5.23;2.80;;;26.60;55.60;;;;;;4927528;29;20451;-68
2022/07/09 09:06:15;;;;;;;4.00;3.27;;;26.60;55.70;;;;;;4934213;29;20459;-68
2022/07/09 09:08:46;;;;;;;4.90;2.87;;;26.60;55.70;;;;;;4935219;29;20558;-68
2022/07/09 09:11:17;;;;;;;3.90;2.80;;;26.70;55.70;;;;;;4937402;29;20492;-68
2022/07/09 09:13:47;;;;;;;3.43;2.30;;;26.70;55.60;;;;;;4925985;29;20514;-68
2022/07/09 09:16:17;;;;;;;3.40;2.50;;;26.70;55.50;;;;;;4932013;29;20502;-68
2022/07/09 09:18:47;;;;;;;4.07;2.70;;;26.70;55.50;;;;;;4932655;29;20459;-68
2022/07/09 09:21:17;;;;;;;3.10;2.80;;;26.70;55.50;;;;;;4932546;29;20527;-68
2022/07/09 09:23:47;;;;;;;4.70;2.97;;;26.80;55.50;;;;;;4924095;29;20495;-68
2022/07/09 09:26:18;;;;;;;3.10;2.80;;;26.80;55.50;;;;;;4924119;29;20570;-70
2022/07/09 09:28:47;;;;;;;4.30;2.80;;;26.80;55.40;;;;;;4932429;29;20570;-68
2022/07/09 09:31:23;;;;;;;5.37;2.83;;;26.80;55.40;;;;;;4928452;29;20499;-67
2022/07/09 09:33:53;;;;;;;3.00;2.50;;;26.80;55.40;;;;;;4921417;29;20444;-67
2022/07/09 09:36:32;;;;;;;3.03;2.73;;;26.80;55.30;;;;;;4929155;29;20458;-67
2022/07/09 09:39:13;;;;;;;3.30;2.03;;;26.90;55.30;;;;;;4917902;29;20532;-67
2022/07/09 09:41:44;;;;;;;3.97;2.73;;;26.90;55.30;;;;;;4932105;29;20870;-67
2022/07/09 09:44:14;;;;;;;5.13;2.90;;;26.90;55.30;;;;;;4934977;29;20465;-67
2022/07/09 09:46:43;;;;;;;3.17;2.47;;;26.90;55.10;;;;;;4932457;29;20458;-69
2022/07/09 09:49:14;;;;;;;2.93;2.43;;;26.90;55.10;;;;;;4930308;29;20507;-69
2022/07/09 09:51:51;;;;;;;5.40;2.67;;;26.90;55.10;;;;;;4922854;29;20491;-73
2022/07/09 09:54:21;;;;;;;3.30;2.70;;;26.90;55.20;;;;;;4930829;29;20950;-71
2022/07/09 09:56:51;;;;;;;3.57;2.27;;;26.90;55.30;;;;;;4929715;29;20848;-73
2022/07/09 09:59:23;;;;;;;3.00;2.03;;;27.00;55.40;;;;;;4927941;29;20534;-72
2022/07/09 10:01:52;;;;;;;4.23;1.73;;;27.00;55.40;;;;;;4921724;29;20467;-68
2022/07/09 10:04:21;;;;;;;4.63;2.43;;;27.00;55.30;;;;;;4928634;29;20531;-68
2022/07/09 10:06:49;;;;;;;4.00;2.00;;;27.00;55.20;;;;;;4929031;29;20814;-68
2022/07/09 10:09:19;;;;;;;2.40;2.00;;;27.00;55.20;;;;;;4931113;29;20479;-68
2022/07/09 10:11:50;;;;;;;4.10;2.50;;;27.00;55.10;;;;;;4935168;29;20851;-68
2022/07/09 10:14:30;;;;;;;2.60;1.60;;;27.00;55.10;;;;;;4932261;29;20497;-68
2022/07/09 10:17:11;;;;;;;5.03;2.47;;;27.10;55.10;;;;;;4930594;29;20495;-68
2022/07/09 10:19:39;;;;;;;2.73;1.80;;;27.10;55.10;;;;;;4934854;29;20463;-69
2022/07/09 10:22:07;;;;;;;2.03;1.60;;;27.10;55.00;;;;;;4928338;29;20847;-68
2022/07/09 10:24:38;;;;;;;2.97;2.03;;;27.10;55.00;;;;;;4933519;29;21260;-68
2022/07/09 10:27:10;;;;;;;3.00;1.90;;;27.10;55.00;;;;;;4932642;29;21014;-69
2022/07/09 10:29:57;;;;;;;2.27;1.73;;;27.10;55.00;;;;;;4929803;29;20985;-69
2022/07/09 10:32:29;;;;;;;2.47;1.60;;;27.10;55.10;;;;;;4933140;29;20468;-69
2022/07/09 10:34:58;;;;;;;4.50;2.10;;;27.10;55.10;;;;;;4931784;29;20577;-68
2022/07/09 10:37:35;;;;;;;2.50;1.83;;;27.10;55.10;;;;;;4941384;29;21022;-68
2022/07/09 10:40:14;;;;;;;3.80;2.27;;;27.10;55.00;;;;;;4925734;29;20510;-69
2022/07/09 10:42:44;;;;;;;4.17;2.10;;;27.10;55.00;;;;;;4928718;29;20461;-68
2022/07/09 10:45:26;;;;;;;4.13;2.33;;;27.10;55.10;;;;;;4930736;29;20459;-68
2022/07/09 10:47:56;;;;;;;3.73;2.00;;;27.10;55.10;;;;;;4916704;29;20923;-69
2022/07/09 10:50:27;;;;;;;3.87;1.93;;;27.10;55.10;;;;;;4932769;29;20578;-68
2022/07/09 10:52:56;;;;;;;3.77;2.60;;;27.10;55.20;;;;;;4933887;29;20975;-68
2022/07/09 10:55:25;;;;;;;7.17;2.73;;;27.10;55.10;;;;;;4929721;29;20451;-69
2022/07/09 10:57:56;;;;;;;6.40;2.50;;;27.20;55.10;;;;;;4931916;29;20451;-69
2022/07/09 11:00:26;;;;;;;4.83;2.63;;;27.20;55.10;;;;;;4932826;29;20459;-69
2022/07/09 11:02:56;;;;;;;4.80;2.47;;;27.20;55.20;;;;;;4932559;29;20455;-68
2022/07/09 11:05:24;;;;;;;2.80;2.00;;;27.20;55.20;;;;;;4934488;29;20477;-68
2022/07/09 11:07:58;;;;;;;3.10;2.03;;;27.20;55.20;;;;;;4933505;29;20468;-69
2022/07/09 11:10:27;;;;;;;2.90;2.10;;;27.20;55.10;;;;;;4913525;29;20525;-68
2022/07/09 11:12:58;;;;;;;3.50;1.97;;;27.30;55.10;;;;;;4934019;29;20515;-68
2022/07/09 11:15:28;;;;;;;3.03;2.47;;;27.30;55.10;;;;;;4932669;29;20450;-69
2022/07/09 11:17:58;;;;;;;4.80;2.00;;;27.30;55.00;;;;;;4931601;29;20452;-68
2022/07/09 11:20:27;;;;;;;3.00;2.40;;;27.30;55.00;;;;;;4932869;29;20481;-69
2022/07/09 11:22:57;;;;;;;5.10;2.30;;;27.30;54.90;;;;;;4934298;29;20556;-68
2022/07/09 11:25:26;;;;;;;2.80;2.17;;;27.30;54.80;;;;;;4931557;29;21061;-69
2022/07/09 11:27:55;;;;;;;4.87;2.33;;;27.30;54.70;;;;;;4922346;29;21240;-68
2022/07/09 11:30:25;;;;;;;4.50;2.37;;;27.30;54.70;;;;;;4932111;29;20631;-68
2022/07/09 11:32:54;;;;;;;3.30;2.47;;;27.30;54.70;;;;;;4932744;29;20504;-69
2022/07/09 11:35:30;;;;;;;8.80;2.10;;;27.30;54.70;;;;;;4933797;29;20463;-68
2022/07/09 11:38:00;;;;;;;4.37;2.03;;;27.30;54.80;;;;;;4933056;29;20938;-68
2022/07/09 11:40:29;;;;;;;4.33;2.60;;;27.30;54.70;;;;;;4932842;29;20453;-69
2022/07/09 11:42:57;;;;;;;2.97;1.77;;;27.30;54.80;;;;;;4933575;29;20824;-69
2022/07/09 11:45:30;;;;;;;3.40;2.20;;;27.30;54.80;;;;;;4925657;29;20472;-68
2022/07/09 11:48:06;;;;;;;3.80;2.03;;;27.30;54.70;;;;;;4934246;29;20522;-68
2022/07/09 11:50:42;;;;;;;2.97;2.10;;;27.30;54.80;;;;;;4932905;29;20525;-68
2022/07/09 11:53:20;;;;;;;3.90;1.83;;;27.40;54.70;;;;;;4934313;29;20459;-69
2022/07/09 11:55:59;;;;;;;3.67;1.93;;;27.40;54.70;;;;;;4932214;29;20522;-68
2022/07/09 11:58:27;;;;;;;3.50;1.90;;;27.40;54.60;;;;;;4933650;29;20539;-68
2022/07/09 12:00:59;;;;;;;2.53;1.80;;;27.50;54.60;;;;;;4932004;29;20486;-68
2022/07/09 12:03:29;;;;;;;3.77;1.90;;;27.60;54.40;;;;;;4931719;29;20467;-68
2022/07/09 12:05:58;;;;;;;5.33;2.60;;;27.70;54.30;;;;;;4933840;29;20487;-68
2022/07/09 12:08:29;;;;;;;2.57;1.80;;;27.80;54.10;;;;;;4932793;29;20442;-68
2022/07/09 12:10:58;;;;;;;3.93;1.77;;;27.80;54.10;;;;;;4932293;29;20487;-68
2022/07/09 12:13:26;;;;;;;3.50;2.00;;;27.80;54.00;;;;;;4934593;29;20519;-68
2022/07/09 12:15:54;;;;;;;4.43;2.10;;;27.80;54.10;;;;;;4933247;29;20488;-68
2022/07/09 12:18:24;;;;;;;2.53;1.90;;;27.80;54.00;;;;;;4932471;29;20549;-68
2022/07/09 12:20:52;;;;;;;3.20;2.03;;;27.80;54.00;;;;;;4933999;29;20457;-68
2022/07/09 12:23:21;;;;;;;2.87;1.97;;;27.80;54.00;;;;;;4926599;29;20585;-68
2022/07/09 12:25:49;;;;;;;2.90;2.07;;;27.80;53.90;;;;;;4927112;29;20489;-69
2022/07/09 12:28:17;;;;;;;3.53;1.90;;;27.80;54.10;;;;;;4934322;29;20503;-68
2022/07/09 12:30:45;;;;;;;3.20;1.30;;;27.70;54.10;;;;;;4937258;29;20473;-68
2022/07/09 12:33:13;;;;;;;2.73;2.00;;;27.70;54.10;;;;;;4937353;29;20543;-68
2022/07/09 12:35:43;;;;;;;2.73;1.70;;;27.70;54.10;;;;;;4938466;29;20441;-68
2022/07/09 12:38:11;;;;;;;3.43;1.80;;;27.70;54.20;;;;;;4937311;29;20504;-68
2022/07/09 12:40:39;;;;;;;4.23;1.67;;;27.60;54.20;;;;;;4935872;29;20484;-68
2022/07/09 12:43:08;;;;;;;4.90;2.00;;;27.60;54.30;;;;;;4938103;29;20952;-69
2022/07/09 12:45:36;;;;;;;2.70;1.60;;;27.50;54.40;;;;;;4934345;29;20542;-69
2022/07/09 12:48:05;;;;;;;1.93;1.30;;;27.50;54.50;;;;;;4935025;29;20527;-69
2022/07/09 12:50:33;;;;;;;1.77;1.50;;;27.50;54.50;;;;;;4934774;29;20477;-68
2022/07/09 12:53:02;;;;;;;1.50;1.30;;;27.40;54.60;;;;;;4934833;29;21010;-68
2022/07/09 12:55:31;;;;;;;4.00;2.00;;;27.40;54.60;;;;;;4935540;29;20456;-68
2022/07/09 12:58:19;;;;;;;1.90;1.60;;;27.40;54.50;;;;;;4933589;29;20474;-68
2022/07/09 13:00:48;;;;;;;1.90;1.60;;;27.40;54.60;;;;;;4935449;29;20448;-68
2022/07/09 13:03:16;;;;;;;2.63;2.10;;;27.40;54.60;;;;;;4936757;29;20515;-68